sensor_id;sensor_type;location;lat;lon;timestamp;temperature;humidity
3334;DHT22;1679;50.392;8.008;2023-11-21T00:02:07;8.00;99.90
3334;DHT22;1679;50.392;8.008;2023-11-21T00:04:33;8.00;99.90
3334;DHT22;1679;50.392;8.008;2023-11-21T00:06:59;8.00;99.90
3334;DHT22;1679;50.392;8.008;2023-11-21T00:09:25;8.00;99.90
3334;DHT22;1679;50.392;8.008;2023-11-21T00:11:50;8.10;99.90
3334;DHT22;1679;50.392;8.008;2023-11-21T00:14:16;8.10;99.90
3334;DHT22;1679;50.392;8.008;2023-11-21T00:16:41;8.10;99.90
3334;DHT22;1679;50.392;8.008;2023-11-21T00:19:07;8.00;99.90
3334;DHT22;1679;50.392;8.008;2023-11-21T00:21:32;8.00;99.90
3334;DHT22;1679;50.392;8.008;2023-11-21T00:23:58;8.10;99.90
3334;DHT22;1679;50.392;8.008;2023-11-21T00:26:23;8.10;99.90
3334;DHT22;1679;50.392;8.008;2023-11-21T00:28:49;8.20;99.90
3334;DHT22;1679;50.392;8.008;2023-11-21T00:31:15;8.10;99.90
3334;DHT22;1679;50.392;8.008;2023-11-21T00:33:41;8.20;99.90
3334;DHT22;1679;50.392;8.008;2023-11-21T00:36:07;8.20;99.90
3334;DHT22;1679;50.392;8.008;2023-11-21T00:38:36;8.20;99.90
3334;DHT22;1679;50.392;8.008;2023-11-21T00:41:01;8.20;99.90
3334;DHT22;1679;50.392;8.008;2023-11-21T00:43:28;8.20;99.90
3334;DHT22;1679;50.392;8.008;2023-11-21T00:45:53;8.20;99.90
3334;DHT22;1679;50.392;8.008;2023-11-21T00:48:19;8.20;99.90
3334;DHT22;1679;50.392;8.008;2023-11-21T00:50:44;8.20;99.90
3334;DHT22;1679;50.392;8.008;2023-11-21T00:53:10;8.20;99.90
3334;DHT22;1679;50.392;8.008;2023-11-21T00:55:36;8.20;99.90
3334;DHT22;1679;50.392;8.008;2023-11-21T00:58:02;8.20;99.90
3334;DHT22;1679;50.392;8.008;2023-11-21T01:00:29;8.20;99.90
3334;DHT22;1679;50.392;8.008;2023-11-21T01:02:55;8.10;99.90
3334;DHT22;1679;50.392;8.008;2023-11-21T01:05:20;8.10;99.90
3334;DHT22;1679;50.392;8.008;2023-11-21T01:07:46;8.10;99.90
3334;DHT22;1679;50.392;8.008;2023-11-21T01:10:11;8.10;99.90
3334;DHT22;1679;50.392;8.008;2023-11-21T01:12:37;8.10;99.90
3334;DHT22;1679;50.392;8.008;2023-11-21T01:15:05;8.10;99.90
3334;DHT22;1679;50.392;8.008;2023-11-21T01:17:33;8.00;99.90
3334;DHT22;1679;50.392;8.008;2023-11-21T01:19:59;8.10;99.90
3334;DHT22;1679;50.392;8.008;2023-11-21T01:22:25;8.00;99.90
3334;DHT22;1679;50.392;8.008;2023-11-21T01:24:52;8.00;99.90
3334;DHT22;1679;50.392;8.008;2023-11-21T01:27:18;8.00;99.90
3334;DHT22;1679;50.392;8.008;2023-11-21T01:29:44;8.00;99.90
3334;DHT22;1679;50.392;8.008;2023-11-21T01:32:10;8.00;99.90
3334;DHT22;1679;50.392;8.008;2023-11-21T01:34:36;7.90;99.90
3334;DHT22;1679;50.392;8.008;2023-11-21T01:37:01;8.00;99.90
3334;DHT22;1679;50.392;8.008;2023-11-21T01:39:30;8.00;99.90
3334;DHT22;1679;50.392;8.008;2023-11-21T01:41:55;8.00;99.90
3334;DHT22;1679;50.392;8.008;2023-11-21T01:44:24;8.00;99.90
3334;DHT22;1679;50.392;8.008;2023-11-21T01:46:50;8.10;99.90
3334;DHT22;1679;50.392;8.008;2023-11-21T01:49:16;8.10;99.90
3334;DHT22;1679;50.392;8.008;2023-11-21T01:51:47;8.10;99.90
3334;DHT22;1679;50.392;8.008;2023-11-21T01:54:15;8.10;99.90
3334;DHT22;1679;50.392;8.008;2023-11-21T01:56:40;8.10;99.90
3334;DHT22;1679;50.392;8.008;2023-11-21T01:59:06;8.10;99.90
3334;DHT22;1679;50.392;8.008;2023-11-21T02:01:33;8.10;99.90
3334;DHT22;1679;50.392;8.008;2023-11-21T02:03:59;8.20;99.90
3334;DHT22;1679;50.392;8.008;2023-11-21T02:06:24;8.20;99.90
3334;DHT22;1679;50.392;8.008;2023-11-21T02:08:51;8.20;99.90
3334;DHT22;1679;50.392;8.008;2023-11-21T02:11:16;8.20;99.90
3334;DHT22;1679;50.392;8.008;2023-11-21T02:13:42;8.20;99.90
3334;DHT22;1679;50.392;8.008;2023-11-21T02:16:10;8.20;99.90
3334;DHT22;1679;50.392;8.008;2023-11-21T02:18:37;8.20;99.90
3334;DHT22;1679;50.392;8.008;2023-11-21T02:21:04;8.30;99.90
3334;DHT22;1679;50.392;8.008;2023-11-21T02:23:30;8.20;99.90
3334;DHT22;1679;50.392;8.008;2023-11-21T02:25:55;8.30;99.90
3334;DHT22;1679;50.392;8.008;2023-11-21T02:28:21;8.30;99.90
3334;DHT22;1679;50.392;8.008;2023-11-21T02:30:51;8.30;99.90
3334;DHT22;1679;50.392;8.008;2023-11-21T02:33:21;8.30;99.90
3334;DHT22;1679;50.392;8.008;2023-11-21T02:35:46;8.30;99.90
3334;DHT22;1679;50.392;8.008;2023-11-21T02:38:12;8.20;99.90
3334;DHT22;1679;50.392;8.008;2023-11-21T02:40:38;8.20;99.90
3334;DHT22;1679;50.392;8.008;2023-11-21T02:43:03;8.20;99.90
3334;DHT22;1679;50.392;8.008;2023-11-21T02:45:31;8.20;99.90
3334;DHT22;1679;50.392;8.008;2023-11-21T02:47:57;8.20;99.90
3334;DHT22;1679;50.392;8.008;2023-11-21T02:50:22;8.20;99.90
3334;DHT22;1679;50.392;8.008;2023-11-21T02:52:48;8.20;99.90
3334;DHT22;1679;50.392;8.008;2023-11-21T02:55:14;8.30;99.90
3334;DHT22;1679;50.392;8.008;2023-11-21T02:57:41;8.20;99.90
3334;DHT22;1679;50.392;8.008;2023-11-21T03:00:07;8.20;99.90
3334;DHT22;1679;50.392;8.008;2023-11-21T03:02:34;8.20;99.90
3334;DHT22;1679;50.392;8.008;2023-11-21T03:05:05;8.20;99.90
3334;DHT22;1679;50.392;8.008;2023-11-21T03:07:31;8.30;99.90
3334;DHT22;1679;50.392;8.008;2023-11-21T03:09:56;8.30;99.90
3334;DHT22;1679;50.392;8.008;2023-11-21T03:12:22;8.20;99.90
3334;DHT22;1679;50.392;8.008;2023-11-21T03:14:47;8.20;99.90
3334;DHT22;1679;50.392;8.008;2023-11-21T03:17:13;8.20;99.90
3334;DHT22;1679;50.392;8.008;2023-11-21T03:19:41;8.20;99.90
3334;DHT22;1679;50.392;8.008;2023-11-21T03:22:06;8.20;99.90
3334;DHT22;1679;50.392;8.008;2023-11-21T03:24:32;8.10;99.90
3334;DHT22;1679;50.392;8.008;2023-11-21T03:26:57;8.10;99.90
3334;DHT22;1679;50.392;8.008;2023-11-21T03:29:23;8.00;99.90
3334;DHT22;1679;50.392;8.008;2023-11-21T03:31:49;8.10;99.90
3334;DHT22;1679;50.392;8.008;2023-11-21T03:34:27;8.10;99.90
3334;DHT22;1679;50.392;8.008;2023-11-21T03:36:53;8.10;99.90
3334;DHT22;1679;50.392;8.008;2023-11-21T03:39:22;8.10;99.90
3334;DHT22;1679;50.392;8.008;2023-11-21T03:41:48;8.10;99.90
3334;DHT22;1679;50.392;8.008;2023-11-21T03:44:14;8.10;99.90
3334;DHT22;1679;50.392;8.008;2023-11-21T03:46:39;8.10;99.90
3334;DHT22;1679;50.392;8.008;2023-11-21T03:49:05;8.10;99.90
3334;DHT22;1679;50.392;8.008;2023-11-21T03:51:31;8.10;99.90
3334;DHT22;1679;50.392;8.008;2023-11-21T03:53:56;8.10;99.90
3334;DHT22;1679;50.392;8.008;2023-11-21T03:56:22;8.10;99.90
3334;DHT22;1679;50.392;8.008;2023-11-21T03:58:48;8.10;99.90
3334;DHT22;1679;50.392;8.008;2023-11-21T04:01:23;8.10;99.90
3334;DHT22;1679;50.392;8.008;2023-11-21T04:03:49;8.10;99.90
3334;DHT22;1679;50.392;8.008;2023-11-21T04:06:16;8.10;99.90
3334;DHT22;1679;50.392;8.008;2023-11-21T04:08:43;8.10;99.90
3334;DHT22;1679;50.392;8.008;2023-11-21T04:11:09;8.10;99.90
3334;DHT22;1679;50.392;8.008;2023-11-21T04:13:37;8.10;99.90
3334;DHT22;1679;50.392;8.008;2023-11-21T04:16:04;8.10;99.90
3334;DHT22;1679;50.392;8.008;2023-11-21T04:18:30;8.20;99.90
3334;DHT22;1679;50.392;8.008;2023-11-21T04:20:56;8.10;99.90
3334;DHT22;1679;50.392;8.008;2023-11-21T04:23:21;8.10;99.90
3334;DHT22;1679;50.392;8.008;2023-11-21T04:25:47;8.10;99.90
3334;DHT22;1679;50.392;8.008;2023-11-21T04:28:12;8.10;99.90
3334;DHT22;1679;50.392;8.008;2023-11-21T04:30:39;8.10;99.90
3334;DHT22;1679;50.392;8.008;2023-11-21T04:33:06;8.10;99.90
3334;DHT22;1679;50.392;8.008;2023-11-21T04:35:33;8.10;99.90
3334;DHT22;1679;50.392;8.008;2023-11-21T04:37:58;8.10;99.90
3334;DHT22;1679;50.392;8.008;2023-11-21T04:40:25;8.10;99.90
3334;DHT22;1679;50.392;8.008;2023-11-21T04:43:00;8.10;99.90
3334;DHT22;1679;50.392;8.008;2023-11-21T04:45:26;8.10;99.90
3334;DHT22;1679;50.392;8.008;2023-11-21T04:47:53;8.10;99.90
3334;DHT22;1679;50.392;8.008;2023-11-21T04:50:19;8.10;99.90
3334;DHT22;1679;50.392;8.008;2023-11-21T04:52:45;8.10;99.90
3334;DHT22;1679;50.392;8.008;2023-11-21T04:55:11;8.00;99.90
3334;DHT22;1679;50.392;8.008;2023-11-21T04:57:36;8.00;99.90
3334;DHT22;1679;50.392;8.008;2023-11-21T05:00:03;8.00;99.90
3334;DHT22;1679;50.392;8.008;2023-11-21T05:02:32;8.00;99.90
3334;DHT22;1679;50.392;8.008;2023-11-21T05:05:01;7.90;99.90
3334;DHT22;1679;50.392;8.008;2023-11-21T05:07:26;7.90;99.90
3334;DHT22;1679;50.392;8.008;2023-11-21T05:09:57;7.90;99.90
3334;DHT22;1679;50.392;8.008;2023-11-21T05:12:24;7.90;99.90
3334;DHT22;1679;50.392;8.008;2023-11-21T05:14:50;7.90;99.90
3334;DHT22;1679;50.392;8.008;2023-11-21T05:17:16;7.90;99.90
3334;DHT22;1679;50.392;8.008;2023-11-21T05:19:41;7.90;99.90
3334;DHT22;1679;50.392;8.008;2023-11-21T05:22:08;7.90;99.90
3334;DHT22;1679;50.392;8.008;2023-11-21T05:24:34;7.90;99.90
3334;DHT22;1679;50.392;8.008;2023-11-21T05:27:00;7.80;99.90
3334;DHT22;1679;50.392;8.008;2023-11-21T05:29:25;7.80;99.90
3334;DHT22;1679;50.392;8.008;2023-11-21T05:31:51;7.80;99.90
3334;DHT22;1679;50.392;8.008;2023-11-21T05:34:17;7.80;99.90
3334;DHT22;1679;50.392;8.008;2023-11-21T05:36:43;7.80;99.90
3334;DHT22;1679;50.392;8.008;2023-11-21T05:39:11;7.80;99.90
3334;DHT22;1679;50.392;8.008;2023-11-21T05:41:36;7.80;99.90
3334;DHT22;1679;50.392;8.008;2023-11-21T05:44:02;7.80;99.90
3334;DHT22;1679;50.392;8.008;2023-11-21T05:46:27;7.80;99.90
3334;DHT22;1679;50.392;8.008;2023-11-21T05:48:53;7.80;99.90
3334;DHT22;1679;50.392;8.008;2023-11-21T05:51:18;7.80;99.90
3334;DHT22;1679;50.392;8.008;2023-11-21T05:53:44;7.80;99.90
3334;DHT22;1679;50.392;8.008;2023-11-21T05:56:10;7.80;99.90
3334;DHT22;1679;50.392;8.008;2023-11-21T05:58:35;7.80;99.90
3334;DHT22;1679;50.392;8.008;2023-11-21T06:01:01;7.80;99.90
3334;DHT22;1679;50.392;8.008;2023-11-21T06:03:26;7.80;99.90
3334;DHT22;1679;50.392;8.008;2023-11-21T06:05:55;7.90;99.90
3334;DHT22;1679;50.392;8.008;2023-11-21T06:08:20;7.90;99.90
3334;DHT22;1679;50.392;8.008;2023-11-21T06:10:46;7.90;99.90
3334;DHT22;1679;50.392;8.008;2023-11-21T06:13:14;7.90;99.90
3334;DHT22;1679;50.392;8.008;2023-11-21T06:15:40;7.90;99.90
3334;DHT22;1679;50.392;8.008;2023-11-21T06:18:05;7.90;99.90
3334;DHT22;1679;50.392;8.008;2023-11-21T06:20:35;7.90;99.90
3334;DHT22;1679;50.392;8.008;2023-11-21T06:23:02;7.90;99.90
3334;DHT22;1679;50.392;8.008;2023-11-21T06:25:29;7.90;99.90
3334;DHT22;1679;50.392;8.008;2023-11-21T06:27:54;7.90;99.90
3334;DHT22;1679;50.392;8.008;2023-11-21T06:30:20;7.90;99.90
3334;DHT22;1679;50.392;8.008;2023-11-21T06:32:46;7.80;99.90
3334;DHT22;1679;50.392;8.008;2023-11-21T06:35:12;7.90;99.90
3334;DHT22;1679;50.392;8.008;2023-11-21T06:37:39;7.90;99.90
3334;DHT22;1679;50.392;8.008;2023-11-21T06:40:05;7.90;99.90
3334;DHT22;1679;50.392;8.008;2023-11-21T06:42:31;7.90;99.90
3334;DHT22;1679;50.392;8.008;2023-11-21T06:44:57;7.90;99.90
3334;DHT22;1679;50.392;8.008;2023-11-21T06:47:26;7.90;99.90
3334;DHT22;1679;50.392;8.008;2023-11-21T06:49:52;7.90;99.90
3334;DHT22;1679;50.392;8.008;2023-11-21T06:52:18;8.00;99.90
3334;DHT22;1679;50.392;8.008;2023-11-21T06:54:44;8.00;99.90
3334;DHT22;1679;50.392;8.008;2023-11-21T06:57:10;8.00;99.90
3334;DHT22;1679;50.392;8.008;2023-11-21T06:59:36;8.00;99.90
3334;DHT22;1679;50.392;8.008;2023-11-21T07:02:02;8.00;99.90
3334;DHT22;1679;50.392;8.008;2023-11-21T07:04:27;7.90;99.90
3334;DHT22;1679;50.392;8.008;2023-11-21T07:06:56;7.90;99.90
3334;DHT22;1679;50.392;8.008;2023-11-21T07:09:21;7.90;99.90
3334;DHT22;1679;50.392;8.008;2023-11-21T07:11:48;7.90;99.90
3334;DHT22;1679;50.392;8.008;2023-11-21T07:14:14;7.90;99.90
3334;DHT22;1679;50.392;8.008;2023-11-21T07:16:40;7.80;99.90
3334;DHT22;1679;50.392;8.008;2023-11-21T07:19:06;7.80;99.90
3334;DHT22;1679;50.392;8.008;2023-11-21T07:21:35;7.80;99.90
3334;DHT22;1679;50.392;8.008;2023-11-21T07:24:02;7.80;99.90
3334;DHT22;1679;50.392;8.008;2023-11-21T07:26:27;7.90;99.90
3334;DHT22;1679;50.392;8.008;2023-11-21T07:28:53;7.90;99.90
3334;DHT22;1679;50.392;8.008;2023-11-21T07:31:20;7.90;99.90
3334;DHT22;1679;50.392;8.008;2023-11-21T07:33:46;7.90;99.90
3334;DHT22;1679;50.392;8.008;2023-11-21T07:36:13;8.00;99.90
3334;DHT22;1679;50.392;8.008;2023-11-21T07:38:38;8.00;99.90
3334;DHT22;1679;50.392;8.008;2023-11-21T07:41:04;8.00;99.90
3334;DHT22;1679;50.392;8.008;2023-11-21T07:43:30;7.90;99.90
3334;DHT22;1679;50.392;8.008;2023-11-21T07:46:00;8.00;99.90
3334;DHT22;1679;50.392;8.008;2023-11-21T07:48:29;8.00;99.90
3334;DHT22;1679;50.392;8.008;2023-11-21T07:50:54;8.00;99.90
3334;DHT22;1679;50.392;8.008;2023-11-21T07:53:20;8.00;99.90
3334;DHT22;1679;50.392;8.008;2023-11-21T07:55:46;8.10;99.90
3334;DHT22;1679;50.392;8.008;2023-11-21T07:58:12;8.10;99.90
3334;DHT22;1679;50.392;8.008;2023-11-21T08:00:38;8.10;99.90
3334;DHT22;1679;50.392;8.008;2023-11-21T08:03:05;8.20;99.90
3334;DHT22;1679;50.392;8.008;2023-11-21T08:05:31;8.20;99.90
3334;DHT22;1679;50.392;8.008;2023-11-21T08:07:56;8.20;99.90
3334;DHT22;1679;50.392;8.008;2023-11-21T08:10:22;8.30;99.90
3334;DHT22;1679;50.392;8.008;2023-11-21T08:12:47;8.30;99.90
3334;DHT22;1679;50.392;8.008;2023-11-21T08:15:14;8.40;99.90
3334;DHT22;1679;50.392;8.008;2023-11-21T08:17:39;8.40;99.90
3334;DHT22;1679;50.392;8.008;2023-11-21T08:20:06;8.40;99.90
3334;DHT22;1679;50.392;8.008;2023-11-21T08:22:34;8.40;99.90
3334;DHT22;1679;50.392;8.008;2023-11-21T08:24:59;8.30;99.90
3334;DHT22;1679;50.392;8.008;2023-11-21T08:27:25;8.40;99.90
3334;DHT22;1679;50.392;8.008;2023-11-21T08:29:50;8.40;99.90
3334;DHT22;1679;50.392;8.008;2023-11-21T08:32:17;8.50;99.90
3334;DHT22;1679;50.392;8.008;2023-11-21T08:34:43;8.50;99.90
3334;DHT22;1679;50.392;8.008;2023-11-21T08:37:10;8.60;99.90
3334;DHT22;1679;50.392;8.008;2023-11-21T08:39:37;8.60;99.90
3334;DHT22;1679;50.392;8.008;2023-11-21T08:42:03;8.60;99.90
3334;DHT22;1679;50.392;8.008;2023-11-21T08:44:29;8.60;99.90
3334;DHT22;1679;50.392;8.008;2023-11-21T08:46:55;8.70;99.90
3334;DHT22;1679;50.392;8.008;2023-11-21T08:49:21;8.70;99.90
3334;DHT22;1679;50.392;8.008;2023-11-21T08:51:46;8.70;99.90
3334;DHT22;1679;50.392;8.008;2023-11-21T08:54:12;8.80;99.90
3334;DHT22;1679;50.392;8.008;2023-11-21T08:56:37;8.80;99.90
3334;DHT22;1679;50.392;8.008;2023-11-21T08:59:03;8.90;99.90
3334;DHT22;1679;50.392;8.008;2023-11-21T09:01:29;8.90;99.90
3334;DHT22;1679;50.392;8.008;2023-11-21T09:03:57;9.00;99.90
3334;DHT22;1679;50.392;8.008;2023-11-21T09:06:24;9.00;99.90
3334;DHT22;1679;50.392;8.008;2023-11-21T09:08:50;9.00;99.90
3334;DHT22;1679;50.392;8.008;2023-11-21T09:11:15;9.10;99.90
3334;DHT22;1679;50.392;8.008;2023-11-21T09:13:41;9.10;99.90
3334;DHT22;1679;50.392;8.008;2023-11-21T09:16:07;9.10;99.90
3334;DHT22;1679;50.392;8.008;2023-11-21T09:18:32;9.20;99.90
3334;DHT22;1679;50.392;8.008;2023-11-21T09:20:58;9.20;99.90
3334;DHT22;1679;50.392;8.008;2023-11-21T09:23:24;9.20;99.90
3334;DHT22;1679;50.392;8.008;2023-11-21T09:25:49;9.20;99.90
3334;DHT22;1679;50.392;8.008;2023-11-21T09:28:17;9.20;99.90
3334;DHT22;1679;50.392;8.008;2023-11-21T09:30:44;9.30;99.90
3334;DHT22;1679;50.392;8.008;2023-11-21T09:33:09;9.30;99.90
3334;DHT22;1679;50.392;8.008;2023-11-21T09:35:37;9.30;99.90
3334;DHT22;1679;50.392;8.008;2023-11-21T09:38:03;9.30;99.90
3334;DHT22;1679;50.392;8.008;2023-11-21T09:40:35;9.40;99.90
3334;DHT22;1679;50.392;8.008;2023-11-21T09:43:01;9.50;99.90
3334;DHT22;1679;50.392;8.008;2023-11-21T09:45:35;9.60;99.90
3334;DHT22;1679;50.392;8.008;2023-11-21T09:48:01;9.50;99.90
3334;DHT22;1679;50.392;8.008;2023-11-21T09:50:27;9.50;99.90
3334;DHT22;1679;50.392;8.008;2023-11-21T09:53:19;9.60;99.90
3334;DHT22;1679;50.392;8.008;2023-11-21T09:55:53;9.60;99.90
3334;DHT22;1679;50.392;8.008;2023-11-21T09:58:20;9.60;99.90
3334;DHT22;1679;50.392;8.008;2023-11-21T10:00:49;9.60;99.90
3334;DHT22;1679;50.392;8.008;2023-11-21T10:03:16;9.60;99.90
3334;DHT22;1679;50.392;8.008;2023-11-21T10:05:43;9.70;99.90
3334;DHT22;1679;50.392;8.008;2023-11-21T10:08:11;9.70;99.90
3334;DHT22;1679;50.392;8.008;2023-11-21T10:10:38;9.70;99.90
3334;DHT22;1679;50.392;8.008;2023-11-21T10:13:11;9.60;99.90
3334;DHT22;1679;50.392;8.008;2023-11-21T10:15:37;9.60;99.90
3334;DHT22;1679;50.392;8.008;2023-11-21T10:18:04;9.50;99.90
3334;DHT22;1679;50.392;8.008;2023-11-21T10:20:32;9.50;99.90
3334;DHT22;1679;50.392;8.008;2023-11-21T10:22:59;9.50;99.90
3334;DHT22;1679;50.392;8.008;2023-11-21T10:25:28;9.50;99.90
3334;DHT22;1679;50.392;8.008;2023-11-21T10:27:58;9.50;99.90
3334;DHT22;1679;50.392;8.008;2023-11-21T10:30:31;9.60;99.90
3334;DHT22;1679;50.392;8.008;2023-11-21T10:33:01;9.70;99.90
3334;DHT22;1679;50.392;8.008;2023-11-21T10:38:06;9.70;99.90
3334;DHT22;1679;50.392;8.008;2023-11-21T10:40:37;9.80;99.90
3334;DHT22;1679;50.392;8.008;2023-11-21T10:43:07;9.80;99.90
3334;DHT22;1679;50.392;8.008;2023-11-21T10:45:39;9.80;99.90
3334;DHT22;1679;50.392;8.008;2023-11-21T10:48:06;9.90;99.90
3334;DHT22;1679;50.392;8.008;2023-11-21T10:50:38;9.90;99.90
3334;DHT22;1679;50.392;8.008;2023-11-21T10:53:05;10.00;99.90
3334;DHT22;1679;50.392;8.008;2023-11-21T10:55:32;10.00;99.90
3334;DHT22;1679;50.392;8.008;2023-11-21T10:57:59;10.10;99.90
3334;DHT22;1679;50.392;8.008;2023-11-21T11:00:28;10.10;99.90
3334;DHT22;1679;50.392;8.008;2023-11-21T11:02:54;10.20;99.90
3334;DHT22;1679;50.392;8.008;2023-11-21T11:05:22;10.20;99.90
3334;DHT22;1679;50.392;8.008;2023-11-21T11:07:50;10.20;99.90
3334;DHT22;1679;50.392;8.008;2023-11-21T11:10:21;10.30;99.90
3334;DHT22;1679;50.392;8.008;2023-11-21T11:12:48;10.30;99.90
3334;DHT22;1679;50.392;8.008;2023-11-21T11:15:16;10.40;99.90
3334;DHT22;1679;50.392;8.008;2023-11-21T11:17:42;10.40;99.90
3334;DHT22;1679;50.392;8.008;2023-11-21T11:20:12;10.40;99.90
3334;DHT22;1679;50.392;8.008;2023-11-21T11:22:46;10.40;99.90
3334;DHT22;1679;50.392;8.008;2023-11-21T11:28:15;10.30;99.90
3334;DHT22;1679;50.392;8.008;2023-11-21T11:33:39;10.30;99.90
3334;DHT22;1679;50.392;8.008;2023-11-21T11:38:48;10.40;99.90
3334;DHT22;1679;50.392;8.008;2023-11-21T11:41:28;10.40;99.90
3334;DHT22;1679;50.392;8.008;2023-11-21T11:43:56;10.40;99.90
3334;DHT22;1679;50.392;8.008;2023-11-21T11:46:40;10.30;99.90
3334;DHT22;1679;50.392;8.008;2023-11-21T11:49:07;10.30;99.90
3334;DHT22;1679;50.392;8.008;2023-11-21T11:51:33;10.30;99.90
3334;DHT22;1679;50.392;8.008;2023-11-21T11:54:01;10.20;99.90
3334;DHT22;1679;50.392;8.008;2023-11-21T11:56:29;10.30;99.90
3334;DHT22;1679;50.392;8.008;2023-11-21T11:58:57;10.30;99.90
3334;DHT22;1679;50.392;8.008;2023-11-21T12:01:25;10.30;99.90
3334;DHT22;1679;50.392;8.008;2023-11-21T12:07:00;10.30;99.90
3334;DHT22;1679;50.392;8.008;2023-11-21T12:09:28;10.30;99.90
3334;DHT22;1679;50.392;8.008;2023-11-21T12:11:55;10.20;99.90
3334;DHT22;1679;50.392;8.008;2023-11-21T12:14:22;10.10;99.90
3334;DHT22;1679;50.392;8.008;2023-11-21T12:16:47;10.10;99.90
3334;DHT22;1679;50.392;8.008;2023-11-21T12:19:13;10.00;99.90
3334;DHT22;1679;50.392;8.008;2023-11-21T12:21:39;10.00;99.90
3334;DHT22;1679;50.392;8.008;2023-11-21T12:24:08;10.10;99.90
3334;DHT22;1679;50.392;8.008;2023-11-21T12:26:39;10.10;99.90
3334;DHT22;1679;50.392;8.008;2023-11-21T12:29:04;10.20;99.90
3334;DHT22;1679;50.392;8.008;2023-11-21T12:31:33;10.20;99.90
3334;DHT22;1679;50.392;8.008;2023-11-21T12:33:59;10.20;99.90
3334;DHT22;1679;50.392;8.008;2023-11-21T12:36:25;10.20;99.90
3334;DHT22;1679;50.392;8.008;2023-11-21T12:38:51;10.30;99.90
3334;DHT22;1679;50.392;8.008;2023-11-21T12:41:17;10.30;99.90
3334;DHT22;1679;50.392;8.008;2023-11-21T12:43:43;10.30;99.90
3334;DHT22;1679;50.392;8.008;2023-11-21T12:46:10;10.30;99.90
3334;DHT22;1679;50.392;8.008;2023-11-21T12:48:39;10.30;99.90
3334;DHT22;1679;50.392;8.008;2023-11-21T12:51:06;10.30;99.90
3334;DHT22;1679;50.392;8.008;2023-11-21T12:53:32;10.30;99.90
3334;DHT22;1679;50.392;8.008;2023-11-21T12:56:05;10.30;99.90
3334;DHT22;1679;50.392;8.008;2023-11-21T12:58:31;10.30;99.90
3334;DHT22;1679;50.392;8.008;2023-11-21T13:00:59;10.30;99.90
3334;DHT22;1679;50.392;8.008;2023-11-21T13:03:25;10.40;99.90
3334;DHT22;1679;50.392;8.008;2023-11-21T13:05:53;10.30;99.90
3334;DHT22;1679;50.392;8.008;2023-11-21T13:08:24;10.20;99.90
3334;DHT22;1679;50.392;8.008;2023-11-21T13:10:55;10.20;99.90
3334;DHT22;1679;50.392;8.008;2023-11-21T13:13:21;10.20;99.90
3334;DHT22;1679;50.392;8.008;2023-11-21T13:18:14;10.10;99.90
3334;DHT22;1679;50.392;8.008;2023-11-21T13:20:41;10.00;99.90
3334;DHT22;1679;50.392;8.008;2023-11-21T13:23:09;10.00;99.90
3334;DHT22;1679;50.392;8.008;2023-11-21T13:25:40;10.00;99.90
3334;DHT22;1679;50.392;8.008;2023-11-21T13:28:07;10.00;99.90
3334;DHT22;1679;50.392;8.008;2023-11-21T13:30:32;9.90;99.90
3334;DHT22;1679;50.392;8.008;2023-11-21T13:33:04;9.90;99.90
3334;DHT22;1679;50.392;8.008;2023-11-21T13:35:37;9.90;99.90
3334;DHT22;1679;50.392;8.008;2023-11-21T13:38:09;9.90;99.90
3334;DHT22;1679;50.392;8.008;2023-11-21T13:40:36;9.90;99.90
3334;DHT22;1679;50.392;8.008;2023-11-21T13:43:10;9.80;99.90
3334;DHT22;1679;50.392;8.008;2023-11-21T13:45:43;9.80;99.90
3334;DHT22;1679;50.392;8.008;2023-11-21T13:48:10;9.70;99.90
3334;DHT22;1679;50.392;8.008;2023-11-21T13:50:44;9.70;99.90
3334;DHT22;1679;50.392;8.008;2023-11-21T13:53:33;9.70;99.90
3334;DHT22;1679;50.392;8.008;2023-11-21T13:56:01;9.70;99.90
3334;DHT22;1679;50.392;8.008;2023-11-21T13:58:27;9.70;99.90
3334;DHT22;1679;50.392;8.008;2023-11-21T14:01:13;9.70;99.90
3334;DHT22;1679;50.392;8.008;2023-11-21T14:04:01;9.70;99.90
3334;DHT22;1679;50.392;8.008;2023-11-21T14:06:48;9.70;99.90
3334;DHT22;1679;50.392;8.008;2023-11-21T14:09:15;9.60;99.90
3334;DHT22;1679;50.392;8.008;2023-11-21T14:11:52;9.60;99.90
3334;DHT22;1679;50.392;8.008;2023-11-21T14:14:20;9.60;99.90
3334;DHT22;1679;50.392;8.008;2023-11-21T14:16:45;9.60;99.90
3334;DHT22;1679;50.392;8.008;2023-11-21T14:19:11;9.60;99.90
3334;DHT22;1679;50.392;8.008;2023-11-21T14:21:41;9.60;99.90
3334;DHT22;1679;50.392;8.008;2023-11-21T14:24:11;9.60;99.90
3334;DHT22;1679;50.392;8.008;2023-11-21T14:26:41;9.50;99.90
3334;DHT22;1679;50.392;8.008;2023-11-21T14:29:08;9.50;99.90
3334;DHT22;1679;50.392;8.008;2023-11-21T14:31:34;9.50;99.90
3334;DHT22;1679;50.392;8.008;2023-11-21T14:34:00;9.50;99.90
3334;DHT22;1679;50.392;8.008;2023-11-21T14:36:28;9.50;99.90
3334;DHT22;1679;50.392;8.008;2023-11-21T14:38:53;9.50;99.90
3334;DHT22;1679;50.392;8.008;2023-11-21T14:41:19;9.50;99.90
3334;DHT22;1679;50.392;8.008;2023-11-21T14:43:45;9.50;99.90
3334;DHT22;1679;50.392;8.008;2023-11-21T14:46:13;9.50;99.90
3334;DHT22;1679;50.392;8.008;2023-11-21T14:48:42;9.50;99.90
3334;DHT22;1679;50.392;8.008;2023-11-21T14:51:10;9.40;99.90
3334;DHT22;1679;50.392;8.008;2023-11-21T14:54:05;9.40;99.90
3334;DHT22;1679;50.392;8.008;2023-11-21T14:56:35;9.40;99.90
3334;DHT22;1679;50.392;8.008;2023-11-21T14:59:02;9.40;99.90
3334;DHT22;1679;50.392;8.008;2023-11-21T15:01:34;9.40;99.90
3334;DHT22;1679;50.392;8.008;2023-11-21T15:04:19;9.40;99.90
3334;DHT22;1679;50.392;8.008;2023-11-21T15:07:04;9.40;99.90
3334;DHT22;1679;50.392;8.008;2023-11-21T15:09:30;9.40;99.90
3334;DHT22;1679;50.392;8.008;2023-11-21T15:12:07;9.50;99.90
3334;DHT22;1679;50.392;8.008;2023-11-21T15:14:46;9.50;99.90
3334;DHT22;1679;50.392;8.008;2023-11-21T15:17:16;9.40;99.90
3334;DHT22;1679;50.392;8.008;2023-11-21T15:19:49;9.40;99.90
3334;DHT22;1679;50.392;8.008;2023-11-21T15:22:15;9.40;99.90
3334;DHT22;1679;50.392;8.008;2023-11-21T15:24:44;9.40;99.90
3334;DHT22;1679;50.392;8.008;2023-11-21T15:27:12;9.40;99.90
3334;DHT22;1679;50.392;8.008;2023-11-21T15:29:39;9.40;99.90
3334;DHT22;1679;50.392;8.008;2023-11-21T15:32:06;9.30;99.90
3334;DHT22;1679;50.392;8.008;2023-11-21T15:34:32;9.30;99.90
3334;DHT22;1679;50.392;8.008;2023-11-21T15:36:58;9.30;99.90
3334;DHT22;1679;50.392;8.008;2023-11-21T15:39:23;9.30;99.90
3334;DHT22;1679;50.392;8.008;2023-11-21T15:41:56;9.30;99.90
3334;DHT22;1679;50.392;8.008;2023-11-21T15:44:23;9.30;99.90
3334;DHT22;1679;50.392;8.008;2023-11-21T15:46:50;9.20;99.90
3334;DHT22;1679;50.392;8.008;2023-11-21T15:49:16;9.30;99.90
3334;DHT22;1679;50.392;8.008;2023-11-21T15:51:45;9.30;99.90
3334;DHT22;1679;50.392;8.008;2023-11-21T15:54:12;9.20;99.90
3334;DHT22;1679;50.392;8.008;2023-11-21T15:56:38;9.30;99.90
3334;DHT22;1679;50.392;8.008;2023-11-21T15:59:04;9.20;99.90
3334;DHT22;1679;50.392;8.008;2023-11-21T16:01:30;9.20;99.90
3334;DHT22;1679;50.392;8.008;2023-11-21T16:03:56;9.20;99.90
3334;DHT22;1679;50.392;8.008;2023-11-21T16:06:21;9.20;99.90
3334;DHT22;1679;50.392;8.008;2023-11-21T16:08:47;9.20;99.90
3334;DHT22;1679;50.392;8.008;2023-11-21T16:11:13;9.20;99.90
3334;DHT22;1679;50.392;8.008;2023-11-21T16:13:39;9.10;99.90
3334;DHT22;1679;50.392;8.008;2023-11-21T16:16:06;9.10;99.90
3334;DHT22;1679;50.392;8.008;2023-11-21T16:18:33;9.10;99.90
3334;DHT22;1679;50.392;8.008;2023-11-21T16:20:58;9.10;99.90
3334;DHT22;1679;50.392;8.008;2023-11-21T16:23:24;9.10;99.90
3334;DHT22;1679;50.392;8.008;2023-11-21T16:25:49;9.10;99.90
3334;DHT22;1679;50.392;8.008;2023-11-21T16:28:22;9.10;99.90
3334;DHT22;1679;50.392;8.008;2023-11-21T16:31:00;9.00;99.90
3334;DHT22;1679;50.392;8.008;2023-11-21T16:33:25;9.00;99.90